sensor_id;sensor_type;location;lat;lon;timestamp;temperature;humidity
9790;DHT22;4934;50.852;8.098;2024-03-22T00:00:26;6.10;99.90
9790;DHT22;4934;50.852;8.098;2024-03-22T00:02:52;6.10;99.90
9790;DHT22;4934;50.852;8.098;2024-03-22T00:05:19;6.30;99.90
9790;DHT22;4934;50.852;8.098;2024-03-22T00:07:47;6.10;99.90
9790;DHT22;4934;50.852;8.098;2024-03-22T00:13:50;6.10;99.90
9790;DHT22;4934;50.852;8.098;2024-03-22T00:16:17;6.10;99.90
9790;DHT22;4934;50.852;8.098;2024-03-22T00:18:43;6.10;99.90
9790;DHT22;4934;50.852;8.098;2024-03-22T00:21:09;6.00;99.90
9790;DHT22;4934;50.852;8.098;2024-03-22T00:24:11;6.00;99.90
9790;DHT22;4934;50.852;8.098;2024-03-22T00:26:37;6.00;99.90
9790;DHT22;4934;50.852;8.098;2024-03-22T00:29:03;6.00;99.90
9790;DHT22;4934;50.852;8.098;2024-03-22T00:31:29;6.00;99.90
9790;DHT22;4934;50.852;8.098;2024-03-22T00:33:56;6.00;99.90
9790;DHT22;4934;50.852;8.098;2024-03-22T00:36:24;6.00;99.90
9790;DHT22;4934;50.852;8.098;2024-03-22T00:38:53;6.00;99.90
9790;DHT22;4934;50.852;8.098;2024-03-22T00:44:50;6.00;99.90
9790;DHT22;4934;50.852;8.098;2024-03-22T00:47:21;6.00;99.90
9790;DHT22;4934;50.852;8.098;2024-03-22T00:49:51;6.00;99.90
9790;DHT22;4934;50.852;8.098;2024-03-22T00:55:15;6.00;99.90
9790;DHT22;4934;50.852;8.098;2024-03-22T00:57:41;6.10;99.90
9790;DHT22;4934;50.852;8.098;2024-03-22T01:00:07;6.10;99.90
9790;DHT22;4934;50.852;8.098;2024-03-22T01:02:35;6.10;99.90
9790;DHT22;4934;50.852;8.098;2024-03-22T01:05:01;6.10;99.90
9790;DHT22;4934;50.852;8.098;2024-03-22T01:07:26;6.10;99.90
9790;DHT22;4934;50.852;8.098;2024-03-22T01:09:55;6.00;99.90
9790;DHT22;4934;50.852;8.098;2024-03-22T01:12:23;6.00;99.90
9790;DHT22;4934;50.852;8.098;2024-03-22T01:14:55;5.90;99.90
9790;DHT22;4934;50.852;8.098;2024-03-22T01:17:22;5.90;99.90
9790;DHT22;4934;50.852;8.098;2024-03-22T01:19:49;6.00;99.90
9790;DHT22;4934;50.852;8.098;2024-03-22T01:22:33;5.90;99.90
9790;DHT22;4934;50.852;8.098;2024-03-22T01:25:02;5.90;99.90
9790;DHT22;4934;50.852;8.098;2024-03-22T01:27:28;5.80;99.90
9790;DHT22;4934;50.852;8.098;2024-03-22T01:40:17;5.80;99.90
9790;DHT22;4934;50.852;8.098;2024-03-22T01:45:18;5.80;99.90
9790;DHT22;4934;50.852;8.098;2024-03-22T01:47:44;5.70;99.90
9790;DHT22;4934;50.852;8.098;2024-03-22T01:53:36;5.80;99.90
9790;DHT22;4934;50.852;8.098;2024-03-22T01:56:30;5.70;99.90
9790;DHT22;4934;50.852;8.098;2024-03-22T01:59:38;5.70;99.90
9790;DHT22;4934;50.852;8.098;2024-03-22T02:02:04;5.70;99.90
9790;DHT22;4934;50.852;8.098;2024-03-22T02:04:31;5.70;99.90
9790;DHT22;4934;50.852;8.098;2024-03-22T02:07:01;5.70;99.90
9790;DHT22;4934;50.852;8.098;2024-03-22T02:09:27;5.70;99.90
9790;DHT22;4934;50.852;8.098;2024-03-22T02:11:52;5.70;99.90
9790;DHT22;4934;50.852;8.098;2024-03-22T02:14:18;5.70;99.90
9790;DHT22;4934;50.852;8.098;2024-03-22T02:16:44;5.70;99.90
9790;DHT22;4934;50.852;8.098;2024-03-22T02:19:11;5.70;99.90
9790;DHT22;4934;50.852;8.098;2024-03-22T02:21:37;5.70;99.90
9790;DHT22;4934;50.852;8.098;2024-03-22T02:24:02;5.70;99.90
9790;DHT22;4934;50.852;8.098;2024-03-22T02:26:28;5.70;99.90
9790;DHT22;4934;50.852;8.098;2024-03-22T02:28:54;5.70;99.90
9790;DHT22;4934;50.852;8.098;2024-03-22T02:31:20;5.70;99.90
9790;DHT22;4934;50.852;8.098;2024-03-22T02:33:49;5.70;99.90
9790;DHT22;4934;50.852;8.098;2024-03-22T02:36:15;5.70;99.90
9790;DHT22;4934;50.852;8.098;2024-03-22T02:43:51;5.80;99.90
9790;DHT22;4934;50.852;8.098;2024-03-22T02:46:18;5.80;99.90
9790;DHT22;4934;50.852;8.098;2024-03-22T02:49:06;5.80;99.90
9790;DHT22;4934;50.852;8.098;2024-03-22T03:01:55;5.70;99.90
9790;DHT22;4934;50.852;8.098;2024-03-22T03:04:21;5.80;99.90
9790;DHT22;4934;50.852;8.098;2024-03-22T03:07:11;5.70;99.90
9790;DHT22;4934;50.852;8.098;2024-03-22T03:09:42;5.70;99.90
9790;DHT22;4934;50.852;8.098;2024-03-22T03:12:08;5.70;99.90
9790;DHT22;4934;50.852;8.098;2024-03-22T03:14:35;5.70;99.90
9790;DHT22;4934;50.852;8.098;2024-03-22T03:17:41;5.70;99.90
9790;DHT22;4934;50.852;8.098;2024-03-22T03:20:20;5.70;99.90
9790;DHT22;4934;50.852;8.098;2024-03-22T03:22:51;5.70;99.90
9790;DHT22;4934;50.852;8.098;2024-03-22T03:26:09;5.70;99.90
9790;DHT22;4934;50.852;8.098;2024-03-22T03:28:35;5.80;99.90
9790;DHT22;4934;50.852;8.098;2024-03-22T03:31:01;5.70;99.90
9790;DHT22;4934;50.852;8.098;2024-03-22T03:33:32;5.70;99.90
9790;DHT22;4934;50.852;8.098;2024-03-22T03:51:38;5.80;99.90
9790;DHT22;4934;50.852;8.098;2024-03-22T03:54:04;5.90;99.90
9790;DHT22;4934;50.852;8.098;2024-03-22T03:56:30;5.90;99.90
9790;DHT22;4934;50.852;8.098;2024-03-22T04:02:32;5.90;99.90
9790;DHT22;4934;50.852;8.098;2024-03-22T04:04:58;5.90;99.90
9790;DHT22;4934;50.852;8.098;2024-03-22T04:07:24;5.90;99.90
9790;DHT22;4934;50.852;8.098;2024-03-22T04:09:50;5.90;99.90
9790;DHT22;4934;50.852;8.098;2024-03-22T04:12:35;5.90;99.90
9790;DHT22;4934;50.852;8.098;2024-03-22T04:17:39;5.90;99.90
9790;DHT22;4934;50.852;8.098;2024-03-22T04:20:10;5.90;99.90
9790;DHT22;4934;50.852;8.098;2024-03-22T04:22:37;5.80;99.90
9790;DHT22;4934;50.852;8.098;2024-03-22T04:25:04;5.90;99.90
9790;DHT22;4934;50.852;8.098;2024-03-22T04:30:06;5.90;99.90
9790;DHT22;4934;50.852;8.098;2024-03-22T04:32:32;6.00;99.90
9790;DHT22;4934;50.852;8.098;2024-03-22T04:40:09;6.00;99.90
9790;DHT22;4934;50.852;8.098;2024-03-22T04:42:43;6.00;99.90
9790;DHT22;4934;50.852;8.098;2024-03-22T04:45:09;6.10;99.90
9790;DHT22;4934;50.852;8.098;2024-03-22T04:58:19;6.00;99.90
9790;DHT22;4934;50.852;8.098;2024-03-22T05:00:45;6.10;99.90
9790;DHT22;4934;50.852;8.098;2024-03-22T05:03:12;6.10;99.90
9790;DHT22;4934;50.852;8.098;2024-03-22T05:27:38;6.20;99.90
9790;DHT22;4934;50.852;8.098;2024-03-22T05:30:04;6.20;99.90
9790;DHT22;4934;50.852;8.098;2024-03-22T05:32:30;6.20;99.90
9790;DHT22;4934;50.852;8.098;2024-03-22T05:37:51;6.20;99.90
9790;DHT22;4934;50.852;8.098;2024-03-22T05:40:26;6.20;99.90
9790;DHT22;4934;50.852;8.098;2024-03-22T05:42:59;6.20;99.90
9790;DHT22;4934;50.852;8.098;2024-03-22T05:45:32;6.30;99.90
9790;DHT22;4934;50.852;8.098;2024-03-22T05:48:16;6.20;99.90
9790;DHT22;4934;50.852;8.098;2024-03-22T05:51:13;6.30;99.90
9790;DHT22;4934;50.852;8.098;2024-03-22T05:54:09;6.40;99.90
9790;DHT22;4934;50.852;8.098;2024-03-22T05:56:39;6.40;99.90
9790;DHT22;4934;50.852;8.098;2024-03-22T05:59:04;6.40;99.90
9790;DHT22;4934;50.852;8.098;2024-03-22T06:01:31;6.40;99.90
9790;DHT22;4934;50.852;8.098;2024-03-22T06:03:57;6.50;99.90
9790;DHT22;4934;50.852;8.098;2024-03-22T06:06:23;6.50;99.90
9790;DHT22;4934;50.852;8.098;2024-03-22T06:09:09;6.60;1.00
9790;DHT22;4934;50.852;8.098;2024-03-22T06:11:36;6.60;99.90
9790;DHT22;4934;50.852;8.098;2024-03-22T06:14:02;6.60;1.00
9790;DHT22;4934;50.852;8.098;2024-03-22T06:16:27;6.70;99.90
9790;DHT22;4934;50.852;8.098;2024-03-22T06:18:53;6.70;99.90
9790;DHT22;4934;50.852;8.098;2024-03-22T06:21:18;6.70;1.00
9790;DHT22;4934;50.852;8.098;2024-03-22T06:23:50;6.80;1.00
9790;DHT22;4934;50.852;8.098;2024-03-22T06:26:15;6.90;1.00
9790;DHT22;4934;50.852;8.098;2024-03-22T06:28:41;6.90;1.00
9790;DHT22;4934;50.852;8.098;2024-03-22T06:31:06;7.00;1.00
9790;DHT22;4934;50.852;8.098;2024-03-22T06:33:33;7.10;1.00
9790;DHT22;4934;50.852;8.098;2024-03-22T06:35:58;7.20;1.00
9790;DHT22;4934;50.852;8.098;2024-03-22T06:38:24;7.30;1.00
9790;DHT22;4934;50.852;8.098;2024-03-22T06:40:49;7.40;1.00
9790;DHT22;4934;50.852;8.098;2024-03-22T06:43:15;7.50;1.00
9790;DHT22;4934;50.852;8.098;2024-03-22T06:45:42;7.50;99.90
9790;DHT22;4934;50.852;8.098;2024-03-22T06:48:07;7.50;99.90
9790;DHT22;4934;50.852;8.098;2024-03-22T06:50:33;7.60;99.90
9790;DHT22;4934;50.852;8.098;2024-03-22T06:52:59;7.60;99.90
9790;DHT22;4934;50.852;8.098;2024-03-22T06:55:24;7.60;99.90
9790;DHT22;4934;50.852;8.098;2024-03-22T06:57:50;7.70;99.90
9790;DHT22;4934;50.852;8.098;2024-03-22T07:00:17;7.70;99.90
9790;DHT22;4934;50.852;8.098;2024-03-22T07:02:50;7.70;99.90
9790;DHT22;4934;50.852;8.098;2024-03-22T07:05:16;7.70;99.90
9790;DHT22;4934;50.852;8.098;2024-03-22T07:07:41;7.70;1.00
9790;DHT22;4934;50.852;8.098;2024-03-22T07:10:07;7.80;99.90
9790;DHT22;4934;50.852;8.098;2024-03-22T07:12:33;7.90;99.90
9790;DHT22;4934;50.852;8.098;2024-03-22T07:15:01;8.10;99.90
9790;DHT22;4934;50.852;8.098;2024-03-22T07:17:28;8.20;99.90
9790;DHT22;4934;50.852;8.098;2024-03-22T07:19:53;8.10;99.90
9790;DHT22;4934;50.852;8.098;2024-03-22T07:22:19;8.20;99.90
9790;DHT22;4934;50.852;8.098;2024-03-22T07:24:47;8.30;99.90
9790;DHT22;4934;50.852;8.098;2024-03-22T07:27:13;8.30;99.90
9790;DHT22;4934;50.852;8.098;2024-03-22T07:29:42;8.50;99.90
9790;DHT22;4934;50.852;8.098;2024-03-22T07:32:09;8.60;99.90
9790;DHT22;4934;50.852;8.098;2024-03-22T07:34:34;8.80;99.90
9790;DHT22;4934;50.852;8.098;2024-03-22T07:37:00;9.00;99.90
9790;DHT22;4934;50.852;8.098;2024-03-22T07:39:25;9.10;99.90
9790;DHT22;4934;50.852;8.098;2024-03-22T07:41:51;9.20;99.90
9790;DHT22;4934;50.852;8.098;2024-03-22T07:44:16;9.30;99.90
9790;DHT22;4934;50.852;8.098;2024-03-22T07:46:45;9.20;97.00
9790;DHT22;4934;50.852;8.098;2024-03-22T07:49:12;9.40;99.90
9790;DHT22;4934;50.852;8.098;2024-03-22T07:51:37;9.60;1.00
9790;DHT22;4934;50.852;8.098;2024-03-22T07:54:03;9.70;1.00
9790;DHT22;4934;50.852;8.098;2024-03-22T07:56:28;9.80;12.20
9790;DHT22;4934;50.852;8.098;2024-03-22T07:58:54;9.90;1.00
9790;DHT22;4934;50.852;8.098;2024-03-22T08:01:33;9.90;1.00
9790;DHT22;4934;50.852;8.098;2024-03-22T08:03:59;10.00;1.00
9790;DHT22;4934;50.852;8.098;2024-03-22T08:06:24;10.30;1.00
9790;DHT22;4934;50.852;8.098;2024-03-22T08:08:50;10.40;99.90
9790;DHT22;4934;50.852;8.098;2024-03-22T08:11:15;10.50;1.00
9790;DHT22;4934;50.852;8.098;2024-03-22T08:13:41;10.50;1.00
9790;DHT22;4934;50.852;8.098;2024-03-22T08:16:08;10.50;99.90
9790;DHT22;4934;50.852;8.098;2024-03-22T08:18:34;10.40;99.90
9790;DHT22;4934;50.852;8.098;2024-03-22T08:20:59;10.60;99.90
9790;DHT22;4934;50.852;8.098;2024-03-22T08:23:25;10.80;20.20
9790;DHT22;4934;50.852;8.098;2024-03-22T08:25:51;11.00;1.00
9790;DHT22;4934;50.852;8.098;2024-03-22T08:28:16;11.00;99.90
9790;DHT22;4934;50.852;8.098;2024-03-22T08:30:42;11.20;99.90
9790;DHT22;4934;50.852;8.098;2024-03-22T08:33:09;11.30;99.90
9790;DHT22;4934;50.852;8.098;2024-03-22T08:35:34;11.60;31.40
9790;DHT22;4934;50.852;8.098;2024-03-22T08:38:00;11.90;99.90
9790;DHT22;4934;50.852;8.098;2024-03-22T08:40:27;12.10;1.00
9790;DHT22;4934;50.852;8.098;2024-03-22T08:42:52;12.20;1.00
9790;DHT22;4934;50.852;8.098;2024-03-22T08:45:18;12.40;99.90
9790;DHT22;4934;50.852;8.098;2024-03-22T08:47:43;12.60;99.90
9790;DHT22;4934;50.852;8.098;2024-03-22T08:50:11;12.80;99.90
9790;DHT22;4934;50.852;8.098;2024-03-22T08:52:37;13.10;99.90
9790;DHT22;4934;50.852;8.098;2024-03-22T08:55:03;13.10;7.40
9790;DHT22;4934;50.852;8.098;2024-03-22T08:57:31;13.20;1.00
9790;DHT22;4934;50.852;8.098;2024-03-22T08:59:56;13.30;52.60
9790;DHT22;4934;50.852;8.098;2024-03-22T09:02:28;13.40;1.00
9790;DHT22;4934;50.852;8.098;2024-03-22T09:04:53;13.60;1.00
9790;DHT22;4934;50.852;8.098;2024-03-22T09:07:19;13.70;1.00
9790;DHT22;4934;50.852;8.098;2024-03-22T09:09:45;13.80;1.00
9790;DHT22;4934;50.852;8.098;2024-03-22T09:12:11;13.90;1.00
9790;DHT22;4934;50.852;8.098;2024-03-22T09:14:36;14.10;1.00
9790;DHT22;4934;50.852;8.098;2024-03-22T09:19:49;14.50;1.00
9790;DHT22;4934;50.852;8.098;2024-03-22T09:22:15;14.70;1.00
9790;DHT22;4934;50.852;8.098;2024-03-22T09:24:41;14.80;99.90
9790;DHT22;4934;50.852;8.098;2024-03-22T09:27:07;14.70;99.90
9790;DHT22;4934;50.852;8.098;2024-03-22T09:29:38;14.80;99.90
9790;DHT22;4934;50.852;8.098;2024-03-22T09:32:04;14.50;99.90
9790;DHT22;4934;50.852;8.098;2024-03-22T09:34:29;14.40;99.90
9790;DHT22;4934;50.852;8.098;2024-03-22T09:37:05;14.30;99.90
9790;DHT22;4934;50.852;8.098;2024-03-22T09:39:30;14.20;99.90
9790;DHT22;4934;50.852;8.098;2024-03-22T09:41:57;14.30;99.90
9790;DHT22;4934;50.852;8.098;2024-03-22T09:44:23;14.40;99.90
9790;DHT22;4934;50.852;8.098;2024-03-22T09:46:48;14.60;99.90
9790;DHT22;4934;50.852;8.098;2024-03-22T09:49:15;14.80;99.90
9790;DHT22;4934;50.852;8.098;2024-03-22T09:51:42;14.80;99.90
9790;DHT22;4934;50.852;8.098;2024-03-22T09:56:42;14.90;99.90
9790;DHT22;4934;50.852;8.098;2024-03-22T09:59:08;14.90;99.90
9790;DHT22;4934;50.852;8.098;2024-03-22T10:01:34;14.90;99.90
9790;DHT22;4934;50.852;8.098;2024-03-22T10:04:00;15.10;99.90
9790;DHT22;4934;50.852;8.098;2024-03-22T10:06:25;15.10;99.90
9790;DHT22;4934;50.852;8.098;2024-03-22T10:08:50;15.00;99.90
9790;DHT22;4934;50.852;8.098;2024-03-22T10:11:17;15.00;99.90
9790;DHT22;4934;50.852;8.098;2024-03-22T10:13:43;15.10;99.90
9790;DHT22;4934;50.852;8.098;2024-03-22T10:16:09;15.20;99.90
9790;DHT22;4934;50.852;8.098;2024-03-22T10:18:35;15.20;99.90
9790;DHT22;4934;50.852;8.098;2024-03-22T10:23:26;14.90;99.90
9790;DHT22;4934;50.852;8.098;2024-03-22T10:25:52;15.00;99.90
9790;DHT22;4934;50.852;8.098;2024-03-22T10:28:18;14.90;99.90
9790;DHT22;4934;50.852;8.098;2024-03-22T10:30:44;14.90;99.90
9790;DHT22;4934;50.852;8.098;2024-03-22T10:33:10;14.90;99.90
9790;DHT22;4934;50.852;8.098;2024-03-22T10:35:35;15.10;99.90
9790;DHT22;4934;50.852;8.098;2024-03-22T10:38:01;15.20;99.90
9790;DHT22;4934;50.852;8.098;2024-03-22T10:40:27;15.40;99.90
9790;DHT22;4934;50.852;8.098;2024-03-22T10:42:54;15.50;99.90
9790;DHT22;4934;50.852;8.098;2024-03-22T10:45:19;15.70;99.90
9790;DHT22;4934;50.852;8.098;2024-03-22T10:47:50;15.60;99.90
9790;DHT22;4934;50.852;8.098;2024-03-22T10:50:22;15.70;99.90
9790;DHT22;4934;50.852;8.098;2024-03-22T10:52:50;15.80;99.90
9790;DHT22;4934;50.852;8.098;2024-03-22T10:56:00;15.80;72.60
9790;DHT22;4934;50.852;8.098;2024-03-22T10:58:09;15.70;99.90
9790;DHT22;4934;50.852;8.098;2024-03-22T11:00:41;15.90;99.90
9790;DHT22;4934;50.852;8.098;2024-03-22T11:03:07;16.00;80.10
9790;DHT22;4934;50.852;8.098;2024-03-22T11:05:32;16.00;26.40
9790;DHT22;4934;50.852;8.098;2024-03-22T11:08:04;16.10;11.00
9790;DHT22;4934;50.852;8.098;2024-03-22T11:10:30;16.00;1.00
9790;DHT22;4934;50.852;8.098;2024-03-22T11:13:03;16.10;1.00
9790;DHT22;4934;50.852;8.098;2024-03-22T11:15:29;16.00;1.00
9790;DHT22;4934;50.852;8.098;2024-03-22T11:17:55;15.90;1.00
9790;DHT22;4934;50.852;8.098;2024-03-22T11:20:20;15.70;1.00
9790;DHT22;4934;50.852;8.098;2024-03-22T11:22:46;15.60;1.00
9790;DHT22;4934;50.852;8.098;2024-03-22T11:25:12;15.40;1.00
9790;DHT22;4934;50.852;8.098;2024-03-22T11:27:37;15.40;1.00
9790;DHT22;4934;50.852;8.098;2024-03-22T11:30:03;15.40;1.00
9790;DHT22;4934;50.852;8.098;2024-03-22T11:32:29;15.50;1.00
9790;DHT22;4934;50.852;8.098;2024-03-22T11:34:54;15.50;1.00
9790;DHT22;4934;50.852;8.098;2024-03-22T11:37:20;15.50;1.00
9790;DHT22;4934;50.852;8.098;2024-03-22T11:39:46;15.50;1.00
9790;DHT22;4934;50.852;8.098;2024-03-22T11:42:11;15.70;1.00
9790;DHT22;4934;50.852;8.098;2024-03-22T11:44:37;15.90;1.00
9790;DHT22;4934;50.852;8.098;2024-03-22T11:47:04;15.80;1.00
9790;DHT22;4934;50.852;8.098;2024-03-22T11:49:32;15.80;1.00
9790;DHT22;4934;50.852;8.098;2024-03-22T11:51:57;15.80;1.00
9790;DHT22;4934;50.852;8.098;2024-03-22T11:54:23;15.80;1.00
9790;DHT22;4934;50.852;8.098;2024-03-22T11:56:51;15.90;1.00
9790;DHT22;4934;50.852;8.098;2024-03-22T11:59:20;16.00;1.00
9790;DHT22;4934;50.852;8.098;2024-03-22T12:01:46;16.00;1.00
9790;DHT22;4934;50.852;8.098;2024-03-22T12:04:12;15.90;1.00
9790;DHT22;4934;50.852;8.098;2024-03-22T12:06:46;15.80;1.00
9790;DHT22;4934;50.852;8.098;2024-03-22T12:09:12;15.60;1.00
9790;DHT22;4934;50.852;8.098;2024-03-22T12:11:39;15.80;1.00
9790;DHT22;4934;50.852;8.098;2024-03-22T12:14:05;15.90;1.00
9790;DHT22;4934;50.852;8.098;2024-03-22T12:16:30;16.00;1.00
9790;DHT22;4934;50.852;8.098;2024-03-22T12:18:56;16.00;1.00
9790;DHT22;4934;50.852;8.098;2024-03-22T12:21:21;15.90;1.00
9790;DHT22;4934;50.852;8.098;2024-03-22T12:23:47;15.90;1.00
9790;DHT22;4934;50.852;8.098;2024-03-22T12:26:13;16.00;1.00
9790;DHT22;4934;50.852;8.098;2024-03-22T12:28:38;16.00;1.00
9790;DHT22;4934;50.852;8.098;2024-03-22T12:31:04;16.10;1.00
9790;DHT22;4934;50.852;8.098;2024-03-22T12:33:29;16.00;1.00
9790;DHT22;4934;50.852;8.098;2024-03-22T12:35:57;16.10;1.00
9790;DHT22;4934;50.852;8.098;2024-03-22T12:38:22;16.20;1.00
9790;DHT22;4934;50.852;8.098;2024-03-22T12:40:48;16.00;1.00
9790;DHT22;4934;50.852;8.098;2024-03-22T12:43:15;16.10;1.00
9790;DHT22;4934;50.852;8.098;2024-03-22T12:45:42;16.30;1.00
9790;DHT22;4934;50.852;8.098;2024-03-22T12:48:08;16.30;1.00
9790;DHT22;4934;50.852;8.098;2024-03-22T12:50:36;16.20;1.00
9790;DHT22;4934;50.852;8.098;2024-03-22T12:53:01;16.40;1.00
9790;DHT22;4934;50.852;8.098;2024-03-22T12:55:34;16.40;1.00
9790;DHT22;4934;50.852;8.098;2024-03-22T12:57:59;16.50;1.00
9790;DHT22;4934;50.852;8.098;2024-03-22T13:00:25;16.50;1.00
9790;DHT22;4934;50.852;8.098;2024-03-22T13:02:51;16.70;1.00
9790;DHT22;4934;50.852;8.098;2024-03-22T13:05:16;16.60;1.00
9790;DHT22;4934;50.852;8.098;2024-03-22T13:07:42;16.50;1.00
9790;DHT22;4934;50.852;8.098;2024-03-22T13:10:07;16.40;1.00
9790;DHT22;4934;50.852;8.098;2024-03-22T13:12:33;16.40;1.00
9790;DHT22;4934;50.852;8.098;2024-03-22T13:15:02;16.60;1.00
9790;DHT22;4934;50.852;8.098;2024-03-22T13:17:27;16.70;1.00
9790;DHT22;4934;50.852;8.098;2024-03-22T13:19:53;16.60;1.00
9790;DHT22;4934;50.852;8.098;2024-03-22T13:22:18;16.70;1.00
9790;DHT22;4934;50.852;8.098;2024-03-22T13:24:47;16.70;1.00
9790;DHT22;4934;50.852;8.098;2024-03-22T13:27:13;16.90;1.00
9790;DHT22;4934;50.852;8.098;2024-03-22T13:29:42;16.90;1.00
9790;DHT22;4934;50.852;8.098;2024-03-22T13:32:08;16.90;1.00
9790;DHT22;4934;50.852;8.098;2024-03-22T13:34:34;16.90;1.00
9790;DHT22;4934;50.852;8.098;2024-03-22T13:36:59;16.60;1.00
9790;DHT22;4934;50.852;8.098;2024-03-22T13:39:25;16.60;1.00
9790;DHT22;4934;50.852;8.098;2024-03-22T13:41:50;16.60;1.00
9790;DHT22;4934;50.852;8.098;2024-03-22T13:44:17;16.50;1.00
9790;DHT22;4934;50.852;8.098;2024-03-22T13:46:43;16.60;1.00
9790;DHT22;4934;50.852;8.098;2024-03-22T13:49:16;16.80;1.00
9790;DHT22;4934;50.852;8.098;2024-03-22T13:51:42;16.80;1.00
9790;DHT22;4934;50.852;8.098;2024-03-22T13:54:07;17.00;1.00
9790;DHT22;4934;50.852;8.098;2024-03-22T13:56:33;17.20;1.00
9790;DHT22;4934;50.852;8.098;2024-03-22T13:58:58;17.40;1.00
9790;DHT22;4934;50.852;8.098;2024-03-22T14:01:24;17.30;1.00
9790;DHT22;4934;50.852;8.098;2024-03-22T14:03:49;17.20;1.00
9790;DHT22;4934;50.852;8.098;2024-03-22T14:06:16;17.00;1.00
9790;DHT22;4934;50.852;8.098;2024-03-22T14:08:41;17.00;1.00
9790;DHT22;4934;50.852;8.098;2024-03-22T14:11:09;17.00;1.00
9790;DHT22;4934;50.852;8.098;2024-03-22T14:13:35;17.10;1.00
9790;DHT22;4934;50.852;8.098;2024-03-22T14:16:00;17.20;1.00
9790;DHT22;4934;50.852;8.098;2024-03-22T14:18:28;17.30;1.00
9790;DHT22;4934;50.852;8.098;2024-03-22T14:20:53;17.40;1.00
9790;DHT22;4934;50.852;8.098;2024-03-22T14:23:19;17.50;1.00
9790;DHT22;4934;50.852;8.098;2024-03-22T14:25:44;17.30;1.00
9790;DHT22;4934;50.852;8.098;2024-03-22T14:28:12;17.20;1.00
9790;DHT22;4934;50.852;8.098;2024-03-22T14:30:39;17.20;1.00
9790;DHT22;4934;50.852;8.098;2024-03-22T14:33:05;17.20;1.00
9790;DHT22;4934;50.852;8.098;2024-03-22T14:35:30;17.10;1.00
9790;DHT22;4934;50.852;8.098;2024-03-22T14:37:56;17.10;1.00
9790;DHT22;4934;50.852;8.098;2024-03-22T14:40:21;16.80;1.00
9790;DHT22;4934;50.852;8.098;2024-03-22T14:42:46;16.90;1.00
9790;DHT22;4934;50.852;8.098;2024-03-22T14:45:12;16.90;1.00
9790;DHT22;4934;50.852;8.098;2024-03-22T14:47:38;17.00;1.00
9790;DHT22;4934;50.852;8.098;2024-03-22T14:50:03;17.10;1.00
9790;DHT22;4934;50.852;8.098;2024-03-22T14:52:29;17.10;1.00
9790;DHT22;4934;50.852;8.098;2024-03-22T14:54:55;17.00;1.00
9790;DHT22;4934;50.852;8.098;2024-03-22T14:57:21;17.00;1.00
9790;DHT22;4934;50.852;8.098;2024-03-22T14:59:46;17.00;1.00
9790;DHT22;4934;50.852;8.098;2024-03-22T15:02:13;17.00;1.00
9790;DHT22;4934;50.852;8.098;2024-03-22T15:04:39;17.00;1.00
9790;DHT22;4934;50.852;8.098;2024-03-22T15:07:04;16.90;1.00
9790;DHT22;4934;50.852;8.098;2024-03-22T15:09:30;16.80;1.00
9790;DHT22;4934;50.852;8.098;2024-03-22T15:11:55;16.80;1.00
9790;DHT22;4934;50.852;8.098;2024-03-22T15:14:25;16.80;1.00
9790;DHT22;4934;50.852;8.098;2024-03-22T15:16:52;16.80;1.00
9790;DHT22;4934;50.852;8.098;2024-03-22T15:19:18;16.50;1.00
9790;DHT22;4934;50.852;8.098;2024-03-22T15:21:43;16.30;1.00
9790;DHT22;4934;50.852;8.098;2024-03-22T15:24:08;16.20;1.00
9790;DHT22;4934;50.852;8.098;2024-03-22T15:26:35;16.30;1.00
9790;DHT22;4934;50.852;8.098;2024-03-22T15:29:02;16.30;1.00
9790;DHT22;4934;50.852;8.098;2024-03-22T15:31:27;16.30;1.00
9790;DHT22;4934;50.852;8.098;2024-03-22T15:33:53;16.20;1.00
9790;DHT22;4934;50.852;8.098;2024-03-22T15:36:21;16.20;1.00
9790;DHT22;4934;50.852;8.098;2024-03-22T15:38:46;16.20;1.00
9790;DHT22;4934;50.852;8.098;2024-03-22T15:41:12;16.20;1.00
9790;DHT22;4934;50.852;8.098;2024-03-22T15:43:39;16.30;1.00
9790;DHT22;4934;50.852;8.098;2024-03-22T15:46:05;16.30;1.00
9790;DHT22;4934;50.852;8.098;2024-03-22T15:48:30;16.30;1.00
9790;DHT22;4934;50.852;8.098;2024-03-22T15:50:56;16.20;1.00
9790;DHT22;4934;50.852;8.098;2024-03-22T15:53:22;16.00;1.00
9790;DHT22;4934;50.852;8.098;2024-03-22T15:55:47;15.90;1.00
9790;DHT22;4934;50.852;8.098;2024-03-22T15:58:13;15.90;1.00
9790;DHT22;4934;50.852;8.098;2024-03-22T16:00:38;15.90;1.00
9790;DHT22;4934;50.852;8.098;2024-03-22T16:03:04;15.60;1.00
9790;DHT22;4934;50.852;8.098;2024-03-22T16:05:30;15.70;1.00
9790;DHT22;4934;50.852;8.098;2024-03-22T16:07:56;15.70;1.00
9790;DHT22;4934;50.852;8.098;2024-03-22T16:10:21;15.60;1.00
9790;DHT22;4934;50.852;8.098;2024-03-22T16:12:47;15.80;1.00
9790;DHT22;4934;50.852;8.098;2024-03-22T16:15:13;15.70;1.00
9790;DHT22;4934;50.852;8.098;2024-03-22T16:17:38;15.80;1.00
9790;DHT22;4934;50.852;8.098;2024-03-22T16:20:07;15.80;1.00
9790;DHT22;4934;50.852;8.098;2024-03-22T16:22:38;16.00;1.00
9790;DHT22;4934;50.852;8.098;2024-03-22T16:25:07;16.10;1.00
9790;DHT22;4934;50.852;8.098;2024-03-22T16:27:32;16.10;1.00
9790;DHT22;4934;50.852;8.098;2024-03-22T16:29:59;16.30;1.00
9790;DHT22;4934;50.852;8.098;2024-03-22T16:32:25;16.40;1.00
9790;DHT22;4934;50.852;8.098;2024-03-22T16:34:50;16.50;1.00
9790;DHT22;4934;50.852;8.098;2024-03-22T16:37:15;16.40;1.00
9790;DHT22;4934;50.852;8.098;2024-03-22T16:39:41;16.20;1.00
9790;DHT22;4934;50.852;8.098;2024-03-22T16:42:06;16.10;1.00
9790;DHT22;4934;50.852;8.098;2024-03-22T16:44:32;16.00;1.00
9790;DHT22;4934;50.852;8.098;2024-03-22T16:46:59;15.90;1.00
9790;DHT22;4934;50.852;8.098;2024-03-22T16:49:24;15.90;1.00
9790;DHT22;4934;50.852;8.098;2024-03-22T16:51:49;15.80;1.00
9790;DHT22;4934;50.852;8.098;2024-03-22T16:54:25;15.70;1.00
9790;DHT22;4934;50.852;8.098;2024-03-22T16:56:51;15.50;1.00
9790;DHT22;4934;50.852;8.098;2024-03-22T16:59:19;15.40;1.00
9790;DHT22;4934;50.852;8.098;2024-03-22T17:01:44;15.30;1.00
9790;DHT22;4934;50.852;8.098;2024-03-22T17:04:10;15.20;1.00
9790;DHT22;4934;50.852;8.098;2024-03-22T17:06:35;15.10;1.00
9790;DHT22;4934;50.852;8.098;2024-03-22T17:09:01;15.10;1.00
9790;DHT22;4934;50.852;8.098;2024-03-22T17:11:27;15.00;1.00
9790;DHT22;4934;50.852;8.098;2024-03-22T17:13:52;14.90;1.00
9790;DHT22;4934;50.852;8.098;2024-03-22T17:16:18;14.80;1.00
9790;DHT22;4934;50.852;8.098;2024-03-22T17:18:44;14.90;1.00
9790;DHT22;4934;50.852;8.098;2024-03-22T17:21:13;14.70;1.00
9790;DHT22;4934;50.852;8.098;2024-03-22T17:23:39;14.60;1.00
9790;DHT22;4934;50.852;8.098;2024-03-22T17:26:04;14.50;1.00
9790;DHT22;4934;50.852;8.098;2024-03-22T17:28:30;14.20;1.00
9790;DHT22;4934;50.852;8.098;2024-03-22T17:30:56;13.90;1.00
9790;DHT22;4934;50.852;8.098;2024-03-22T17:33:21;13.90;1.00
9790;DHT22;4934;50.852;8.098;2024-03-22T17:35:47;13.90;1.00
9790;DHT22;4934;50.852;8.098;2024-03-22T17:38:12;13.80;1.00
9790;DHT22;4934;50.852;8.098;2024-03-22T17:40:38;13.90;1.00
9790;DHT22;4934;50.852;8.098;2024-03-22T17:43:04;13.70;1.00
9790;DHT22;4934;50.852;8.098;2024-03-22T17:45:30;13.60;1.00
9790;DHT22;4934;50.852;8.098;2024-03-22T17:47:59;13.50;1.00
9790;DHT22;4934;50.852;8.098;2024-03-22T17:50:25;13.40;1.00
9790;DHT22;4934;50.852;8.098;2024-03-22T17:52:50;13.20;1.00
9790;DHT22;4934;50.852;8.098;2024-03-22T17:55:16;13.10;1.00
9790;DHT22;4934;50.852;8.098;2024-03-22T17:57:41;12.80;1.00
9790;DHT22;4934;50.852;8.098;2024-03-22T18:00:07;12.80;1.00
9790;DHT22;4934;50.852;8.098;2024-03-22T18:02:34;12.70;1.00
9790;DHT22;4934;50.852;8.098;2024-03-22T18:04:59;12.60;1.00
9790;DHT22;4934;50.852;8.098;2024-03-22T18:07:26;12.40;1.00
9790;DHT22;4934;50.852;8.098;2024-03-22T18:09:52;12.30;1.00
9790;DHT22;4934;50.852;8.098;2024-03-22T18:12:17;12.00;1.00